Current Weather

Heathrow

Heathrow, United Kingdom (EGLL)

Report from: Saturday, February 4, 2023 4:50 AM GMT
Current time: Saturday, February 4, 2023 5:20 AM GMT

Nearby weather
Weather history
Weather forecast

Temperature8.0°C (46.4°F)
Wind chill5.5°C (41.9°F)
Dew point7.0°C (44.6°F)
Winds 8 kts (4.1 m/s, 9.2 mph) West (270°)
Visibility6.2 mi. (10 km)
Clouds Ceiling: Overcast 3,600 ft. (1,097 m)
Altimeter30.59 in.Hg (1036 mB)
Relative humidity93 %
Density altitude-1,464 ft. (-446 m)
Remarks Fully automated report
Corrected report
No significant changes expected in the next two hours
Flight conditions Visual Meteorological Conditions
Raw dataCOR EGLL 040450Z AUTO 27008KT 9999 OVC036 08/07 Q1036 NOSIG
An unhandled exception has occurred. See browser dev tools for details. Reload 🗙